» Metar & Tafor

23 Maret 2020
METAR
Pukul : 06.00 UTC
Isi :

METAR WAGI 040600Z 10006KT 9999 SCT018 31/23 Q1007 NOSIG=


10 Juni 2019
TAFOR
Pukul : 06 - 18 UTC
Isi :

TAF WAGI 040500Z 0406/0418 10005KT 9999 BKN018 TEMPO 0407/0410 4000 -RA FEW012CB BKN012=


Hal: << First | < Prev | 1 | Next > | Last >>